createdAt,value
2022-11-29T00:01:36.988Z,2.86
2022-11-29T00:04:04.835Z,2.86
2022-11-29T00:06:32.913Z,2.87
2022-11-29T00:09:03.268Z,2.86
2022-11-29T00:11:52.629Z,2.87
2022-11-29T00:14:21.621Z,2.85
2022-11-29T00:16:59.440Z,2.88
2022-11-29T00:19:26.892Z,2.92
2022-11-29T00:21:54.377Z,2.89
2022-11-29T00:24:22.204Z,2.86
2022-11-29T00:26:49.602Z,2.86
2022-11-29T00:29:17.701Z,2.89
2022-11-29T00:31:45.215Z,2.87
2022-11-29T00:34:12.945Z,2.90
2022-11-29T00:36:40.795Z,2.89
2022-11-29T00:39:11.969Z,2.92
2022-11-29T00:41:39.905Z,2.91
2022-11-29T00:44:07.419Z,2.90
2022-11-29T00:46:34.846Z,2.93
2022-11-29T00:49:02.415Z,2.93
2022-11-29T00:51:29.767Z,2.95
2022-11-29T00:53:57.276Z,2.92
2022-11-29T00:56:24.797Z,2.92
2022-11-29T00:58:52.651Z,2.95
2022-11-29T01:01:20.123Z,2.97
2022-11-29T01:03:47.886Z,2.95
2022-11-29T01:06:18.508Z,2.97
2022-11-29T01:08:46.779Z,2.97
2022-11-29T01:11:26.342Z,3.05
2022-11-29T01:13:56.330Z,3.00
2022-11-29T01:16:23.849Z,2.96
2022-11-29T01:18:51.530Z,2.97
2022-11-29T01:21:21.795Z,2.99
2022-11-29T01:23:51.310Z,3.00
2022-11-29T01:26:21.875Z,3.01
2022-11-29T01:28:51.838Z,2.95
2022-11-29T01:31:28.283Z,2.91
2022-11-29T01:33:59.690Z,2.93
2022-11-29T01:36:27.743Z,2.99
2022-11-29T01:38:55.243Z,2.91
2022-11-29T01:41:28.717Z,2.91
2022-11-29T01:44:14.237Z,2.92
2022-11-29T01:46:46.497Z,2.90
2022-11-29T01:49:22.620Z,2.90
2022-11-29T01:52:01.348Z,2.84
2022-11-29T01:54:31.896Z,2.82
2022-11-29T01:56:59.809Z,2.82
2022-11-29T01:59:29.376Z,2.80
2022-11-29T02:02:05.329Z,2.80
2022-11-29T02:04:35.580Z,2.77
2022-11-29T02:07:03.674Z,2.75
2022-11-29T02:09:31.458Z,2.73
2022-11-29T02:12:23.517Z,2.73
2022-11-29T02:15:29.370Z,2.68
2022-11-29T02:18:05.281Z,2.66
2022-11-29T02:21:09.736Z,2.65
2022-11-29T02:24:11.323Z,2.63
2022-11-29T02:27:00.030Z,2.61
2022-11-29T02:29:49.341Z,2.56
2022-11-29T02:32:39.803Z,2.54
2022-11-29T02:35:42.617Z,2.53
2022-11-29T02:38:28.665Z,2.53
2022-11-29T02:41:20.374Z,2.53
2022-11-29T02:43:50.845Z,2.50
2022-11-29T02:46:33.417Z,2.50
2022-11-29T02:49:11.731Z,2.46
2022-11-29T02:51:55.810Z,2.45
2022-11-29T02:54:29.756Z,2.43
2022-11-29T02:57:04.741Z,2.41
2022-11-29T03:00:16.114Z,2.42
2022-11-29T03:02:53.493Z,2.41
2022-11-29T03:05:55.164Z,2.37
2022-11-29T03:08:39.314Z,2.34
2022-11-29T03:11:18.250Z,2.35
2022-11-29T03:14:33.978Z,2.30
2022-11-29T03:17:23.726Z,2.26
2022-11-29T03:19:54.121Z,2.27
2022-11-29T03:22:48.152Z,2.24
2022-11-29T03:25:43.844Z,2.24
2022-11-29T03:28:20.869Z,2.24
2022-11-29T03:31:04.277Z,2.24
2022-11-29T03:33:50.201Z,2.22
2022-11-29T03:36:40.136Z,2.20
2022-11-29T03:39:23.196Z,2.22
2022-11-29T03:41:57.563Z,2.19
2022-11-29T03:44:31.021Z,2.17
2022-11-29T03:47:15.372Z,2.22
2022-11-29T03:49:47.901Z,2.20
2022-11-29T03:52:33.331Z,2.20
2022-11-29T03:55:21.752Z,2.21
2022-11-29T03:58:14.258Z,2.18
2022-11-29T04:00:48.832Z,2.16
2022-11-29T04:03:34.563Z,2.22
2022-11-29T04:06:05.195Z,2.18
2022-11-29T04:09:20.575Z,2.17
2022-11-29T04:12:38.063Z,2.16
2022-11-29T04:15:34.306Z,2.19
2022-11-29T04:18:12.613Z,2.18
2022-11-29T04:20:48.385Z,2.14
2022-11-29T04:23:25.456Z,2.16
2022-11-29T04:26:06.624Z,2.12
2022-11-29T04:28:46.203Z,2.14
2022-11-29T04:31:22.817Z,2.16
2022-11-29T04:34:08.608Z,2.14
2022-11-29T04:36:55.380Z,2.11
2022-11-29T04:39:59.058Z,2.12
2022-11-29T04:42:45.258Z,2.16
2022-11-29T04:45:54.255Z,2.11
2022-11-29T04:48:51.656Z,2.12
2022-11-29T04:51:27.262Z,2.10
2022-11-29T04:54:07.900Z,2.10
2022-11-29T04:56:54.254Z,2.08
2022-11-29T04:59:42.438Z,2.10
2022-11-29T05:02:30.262Z,2.08
2022-11-29T05:05:16.793Z,2.11
2022-11-29T05:08:05.936Z,2.08
2022-11-29T05:10:48.468Z,2.12
2022-11-29T05:13:46.185Z,2.08
2022-11-29T05:16:37.640Z,2.14
2022-11-29T05:19:25.223Z,2.12
2022-11-29T05:21:55.535Z,2.10
2022-11-29T05:24:53.632Z,2.11
2022-11-29T05:27:33.262Z,2.14
2022-11-29T05:30:35.199Z,2.10
2022-11-29T05:33:11.848Z,2.11
2022-11-29T05:36:00.588Z,2.12
2022-11-29T05:39:03.529Z,2.11
2022-11-29T05:42:05.101Z,2.12
2022-11-29T05:44:58.098Z,2.12
2022-11-29T05:47:42.715Z,2.11
2022-11-29T05:50:18.706Z,2.12
2022-11-29T05:53:15.170Z,2.12
2022-11-29T05:56:02.697Z,2.15
2022-11-29T05:58:39.934Z,2.15
2022-11-29T06:01:14.523Z,2.13
2022-11-29T06:04:09.125Z,2.12
2022-11-29T06:06:55.531Z,2.15
2022-11-29T06:10:01.631Z,2.14
2022-11-29T06:12:32.200Z,2.16
2022-11-29T06:15:28.057Z,2.14
2022-11-29T06:18:23.770Z,2.15
2022-11-29T06:21:22.373Z,2.19
2022-11-29T06:24:07.248Z,2.17
2022-11-29T06:26:46.800Z,2.21
2022-11-29T06:29:29.488Z,2.21
2022-11-29T06:32:12.129Z,2.19
2022-11-29T06:34:52.187Z,2.19
2022-11-29T06:37:29.876Z,2.22
2022-11-29T06:39:57.837Z,2.23
2022-11-29T06:42:25.097Z,2.21
2022-11-29T06:44:54.859Z,2.19
2022-11-29T06:47:34.241Z,2.25
2022-11-29T06:50:07.233Z,2.23
2022-11-29T06:52:51.389Z,2.23
2022-11-29T06:55:37.122Z,2.24
2022-11-29T06:58:07.530Z,2.23
2022-11-29T07:00:48.620Z,2.20
2022-11-29T07:03:39.257Z,2.21
2022-11-29T07:06:26.041Z,2.27
2022-11-29T07:09:01.356Z,2.23
2022-11-29T07:11:29.079Z,2.22
2022-11-29T07:13:56.798Z,2.21
2022-11-29T07:16:31.745Z,2.20
2022-11-29T07:19:20.488Z,2.22
2022-11-29T07:21:57.008Z,2.24
2022-11-29T07:24:51.240Z,2.21
2022-11-29T07:27:40.857Z,2.19
2022-11-29T07:30:19.089Z,2.19
2022-11-29T07:33:11.026Z,2.20
2022-11-29T07:36:00.216Z,2.22
2022-11-29T07:38:45.871Z,2.26
2022-11-29T07:41:41.092Z,2.35
2022-11-29T07:44:23.823Z,2.30
2022-11-29T07:46:51.432Z,2.28
2022-11-29T07:49:18.992Z,2.26
2022-11-29T07:51:46.450Z,2.29
2022-11-29T07:54:17.626Z,2.34
2022-11-29T07:56:45.764Z,2.33
2022-11-29T07:59:14.657Z,2.35
2022-11-29T08:01:42.655Z,2.38
2022-11-29T08:04:10.321Z,2.37
2022-11-29T08:06:38.521Z,2.38
2022-11-29T08:09:07.625Z,2.36
2022-11-29T08:11:35.006Z,2.34
2022-11-29T08:14:04.547Z,2.33
2022-11-29T08:16:32.725Z,2.34
2022-11-29T08:19:00.554Z,2.33
2022-11-29T08:21:27.814Z,2.38
2022-11-29T08:23:55.162Z,2.39
2022-11-29T08:26:25.601Z,2.40
2022-11-29T08:28:57.407Z,2.40
2022-11-29T08:31:24.901Z,2.38
2022-11-29T08:33:52.355Z,2.41
2022-11-29T08:36:21.461Z,2.46
2022-11-29T08:38:49.116Z,2.44
2022-11-29T08:41:17.701Z,2.43
2022-11-29T08:43:45.408Z,2.46
2022-11-29T08:46:18.354Z,2.46
2022-11-29T08:48:47.887Z,2.48
2022-11-29T08:51:15.660Z,2.48
2022-11-29T08:53:43.408Z,2.48
2022-11-29T08:56:59.995Z,2.45
2022-11-29T08:59:06.365Z,2.48
2022-11-29T09:01:33.852Z,2.49
2022-11-29T09:04:05.159Z,2.49
2022-11-29T09:06:44.614Z,2.49
2022-11-29T09:09:12.260Z,2.60
2022-11-29T09:11:39.761Z,2.55
2022-11-29T09:14:09.465Z,2.56
2022-11-29T09:16:38.602Z,2.58
2022-11-29T09:19:06.453Z,2.56
2022-11-29T09:21:36.677Z,2.61
2022-11-29T09:24:06.578Z,2.62
2022-11-29T09:26:38.009Z,2.59
2022-11-29T09:29:06.599Z,2.60
2022-11-29T09:31:35.044Z,2.68
2022-11-29T09:34:02.710Z,2.63
2022-11-29T09:36:31.346Z,2.62
2022-11-29T09:39:02.686Z,2.69
2022-11-29T09:41:48.976Z,2.72
2022-11-29T09:44:59.408Z,2.73
2022-11-29T09:48:07.760Z,2.76
2022-11-29T09:50:37.571Z,2.76
2022-11-29T09:53:04.885Z,2.77
2022-11-29T09:55:38.566Z,2.80
2022-11-29T09:58:13.408Z,2.90
2022-11-29T10:00:48.610Z,2.91
2022-11-29T10:03:25.595Z,2.96
2022-11-29T10:06:04.153Z,2.98
2022-11-29T10:08:38.560Z,2.93
2022-11-29T10:11:20.358Z,2.93
2022-11-29T10:13:54.633Z,2.97
2022-11-29T10:16:57.504Z,2.91
2022-11-29T10:19:36.340Z,2.94
2022-11-29T10:22:12.757Z,3.05
2022-11-29T10:24:44.968Z,3.08
2022-11-29T10:27:20.337Z,3.07
2022-11-29T10:29:51.143Z,3.07
2022-11-29T10:32:21.361Z,3.11
2022-11-29T10:34:49.956Z,3.06
2022-11-29T10:37:22.050Z,3.06
2022-11-29T10:39:53.321Z,3.11
2022-11-29T10:42:42.281Z,3.13
2022-11-29T10:45:30.810Z,3.09
2022-11-29T10:48:06.325Z,3.11
2022-11-29T10:50:36.348Z,3.08
2022-11-29T10:53:16.758Z,3.13
2022-11-29T10:55:50.271Z,3.14
2022-11-29T10:58:28.259Z,3.17
2022-11-29T11:00:57.600Z,3.19
2022-11-29T11:03:42.806Z,3.22
2022-11-29T11:06:10.170Z,3.24
2022-11-29T11:08:41.376Z,3.22
2022-11-29T11:11:09.243Z,3.33
2022-11-29T11:13:37.076Z,3.26
2022-11-29T11:16:07.793Z,3.29
2022-11-29T11:18:36.798Z,3.30
2022-11-29T11:21:07.604Z,3.27
2022-11-29T11:23:42.387Z,3.27
2022-11-29T11:26:13.342Z,3.30
2022-11-29T11:28:46.908Z,3.33
2022-11-29T11:31:14.909Z,3.30
2022-11-29T11:33:46.494Z,3.31
2022-11-29T11:36:22.253Z,3.29
2022-11-29T11:38:53.216Z,3.29
2022-11-29T11:42:05.353Z,3.31
2022-11-29T11:44:49.518Z,3.31
2022-11-29T11:47:22.182Z,3.38
2022-11-29T11:50:02.721Z,3.37
2022-11-29T11:52:50.466Z,3.39
2022-11-29T11:55:21.470Z,3.47
2022-11-29T11:58:13.875Z,3.40
2022-11-29T12:01:11.794Z,3.38
2022-11-29T12:03:49.563Z,3.44
2022-11-29T12:06:19.827Z,3.43
2022-11-29T12:08:48.925Z,3.45
2022-11-29T12:11:18.648Z,3.43
2022-11-29T12:13:52.777Z,3.45
2022-11-29T12:16:29.270Z,3.45
2022-11-29T12:19:25.128Z,3.41
2022-11-29T12:21:59.725Z,3.44
2022-11-29T12:24:34.517Z,3.48
2022-11-29T12:27:06.208Z,3.45
2022-11-29T12:29:35.375Z,3.51
2022-11-29T12:32:22.062Z,3.46
2022-11-29T12:35:07.489Z,3.41
2022-11-29T12:37:54.568Z,3.35
2022-11-29T12:40:21.906Z,3.35
2022-11-29T12:43:03.481Z,3.33
2022-11-29T12:45:54.001Z,3.37
2022-11-29T12:48:33.659Z,3.40
2022-11-29T12:51:30.633Z,3.43
2022-11-29T12:54:35.754Z,3.33
2022-11-29T12:57:41.500Z,3.41
2022-11-29T13:00:19.059Z,3.43
2022-11-29T13:03:08.539Z,3.38
2022-11-29T13:05:42.548Z,3.36
2022-11-29T13:08:39.151Z,3.44
2022-11-29T13:11:11.154Z,3.43
2022-11-29T13:13:46.247Z,3.43
2022-11-29T13:16:35.319Z,3.49
2022-11-29T13:19:22.949Z,3.43
2022-11-29T13:22:02.437Z,3.41
2022-11-29T13:24:36.074Z,3.45
2022-11-29T13:27:08.036Z,3.49
2022-11-29T13:29:35.681Z,3.44
2022-11-29T13:32:10.094Z,3.40
2022-11-29T13:34:47.287Z,3.45
2022-11-29T13:37:54.994Z,3.41
2022-11-29T13:40:45.581Z,3.38
2022-11-29T13:43:30.370Z,3.40
2022-11-29T13:45:58.661Z,3.38
2022-11-29T13:48:29.164Z,3.39
2022-11-29T13:50:58.114Z,3.34
2022-11-29T13:53:46.867Z,3.35
2022-11-29T13:56:33.611Z,3.36
2022-11-29T13:59:05.866Z,3.31
2022-11-29T14:01:45.549Z,3.31
2022-11-29T14:04:36.197Z,3.26
2022-11-29T14:07:14.210Z,3.28
2022-11-29T14:09:41.640Z,3.24
2022-11-29T14:13:04.648Z,3.24
2022-11-29T14:15:33.369Z,3.20
2022-11-29T14:18:02.968Z,3.24
2022-11-29T14:20:30.385Z,3.31
2022-11-29T14:23:07.715Z,3.25
2022-11-29T14:25:51.604Z,3.20
2022-11-29T14:28:22.768Z,3.16
2022-11-29T14:30:55.011Z,3.17
2022-11-29T14:33:46.815Z,3.17
2022-11-29T14:36:48.190Z,3.14
2022-11-29T14:39:42.344Z,3.20
2022-11-29T14:42:22.120Z,3.18
2022-11-29T14:44:56.104Z,3.12
2022-11-29T14:47:31.937Z,3.11
2022-11-29T14:50:07.514Z,3.11
2022-11-29T14:52:39.993Z,3.08
2022-11-29T14:55:16.377Z,3.08
2022-11-29T14:57:53.109Z,3.06
2022-11-29T15:00:34.744Z,3.09
2022-11-29T15:03:21.754Z,3.07
2022-11-29T15:05:56.548Z,3.09
2022-11-29T15:08:52.876Z,3.06
2022-11-29T15:11:50.413Z,3.02
2022-11-29T15:14:31.169Z,3.03
2022-11-29T15:17:23.533Z,2.98
2022-11-29T15:20:27.962Z,3.03
2022-11-29T15:22:59.618Z,2.98
2022-11-29T15:25:32.159Z,2.98
2022-11-29T15:28:02.151Z,2.97
2022-11-29T15:30:42.738Z,2.95
2022-11-29T15:33:23.446Z,2.93
2022-11-29T15:35:57.144Z,2.93
2022-11-29T15:38:24.770Z,2.90
2022-11-29T15:40:54.722Z,2.94
2022-11-29T15:43:30.525Z,2.89
2022-11-29T15:45:58.667Z,2.91
2022-11-29T15:48:27.231Z,2.86
2022-11-29T15:51:22.653Z,2.88
2022-11-29T15:54:11.693Z,2.82
2022-11-29T15:56:46.370Z,2.85
2022-11-29T15:59:26.282Z,2.83
2022-11-29T16:01:56.660Z,2.81
2022-11-29T16:04:24.827Z,2.80
2022-11-29T16:06:52.899Z,2.84
2022-11-29T16:09:28.870Z,2.80
2022-11-29T16:11:57.533Z,2.78
2022-11-29T16:14:28.436Z,2.82
2022-11-29T16:17:00.848Z,2.79
2022-11-29T16:19:28.569Z,2.79
2022-11-29T16:22:00.532Z,2.80
2022-11-29T16:24:28.000Z,2.76
2022-11-29T16:26:56.165Z,2.75
2022-11-29T16:29:30.996Z,2.77
2022-11-29T16:31:58.552Z,2.79
2022-11-29T16:34:33.953Z,2.73
2022-11-29T16:37:14.971Z,2.78
2022-11-29T16:39:48.232Z,2.72
2022-11-29T16:42:25.879Z,2.79
2022-11-29T16:45:34.446Z,2.74
2022-11-29T16:48:14.387Z,2.75
2022-11-29T16:50:41.804Z,2.74
2022-11-29T16:53:38.123Z,2.79
2022-11-29T16:56:06.268Z,2.72
2022-11-29T16:58:37.494Z,2.72
2022-11-29T17:01:25.263Z,2.74
2022-11-29T17:03:53.548Z,2.71
2022-11-29T17:06:23.466Z,2.77
2022-11-29T17:08:52.459Z,2.73
2022-11-29T17:11:20.063Z,2.70
2022-11-29T17:13:48.409Z,2.68
2022-11-29T17:16:21.471Z,2.67
2022-11-29T17:18:49.826Z,2.74
2022-11-29T17:21:25.830Z,2.73
2022-11-29T17:23:54.010Z,2.69
2022-11-29T17:26:22.482Z,2.67
2022-11-29T17:28:52.197Z,2.67
2022-11-29T17:31:22.908Z,2.72
2022-11-29T17:33:51.497Z,2.76
2022-11-29T17:36:20.359Z,2.70
2022-11-29T17:38:48.965Z,2.68
2022-11-29T17:41:22.486Z,2.76
2022-11-29T17:43:52.462Z,2.76
2022-11-29T17:46:31.851Z,2.68
2022-11-29T17:49:00.868Z,2.67
2022-11-29T17:51:51.255Z,2.66
2022-11-29T17:54:16.440Z,2.73
2022-11-29T17:56:43.828Z,2.71
2022-11-29T17:59:11.393Z,2.78
2022-11-29T18:01:39.457Z,2.76
2022-11-29T18:04:08.460Z,2.70
2022-11-29T18:06:39.358Z,2.71
2022-11-29T18:09:09.281Z,2.69
2022-11-29T18:11:47.107Z,2.71
2022-11-29T18:14:19.021Z,2.70
2022-11-29T18:16:54.590Z,2.66
2022-11-29T18:19:24.016Z,2.64
2022-11-29T18:21:51.884Z,2.68
2022-11-29T18:24:19.909Z,2.66
2022-11-29T18:26:47.633Z,2.66
2022-11-29T18:29:19.846Z,2.66
2022-11-29T18:31:56.601Z,2.65
2022-11-29T18:34:25.159Z,2.63
2022-11-29T18:36:53.226Z,2.69
2022-11-29T18:39:24.368Z,2.66
2022-11-29T18:41:55.004Z,2.64
2022-11-29T18:44:29.413Z,2.67
2022-11-29T18:46:59.406Z,2.68
2022-11-29T18:49:27.193Z,2.74
2022-11-29T18:51:55.168Z,2.71
2022-11-29T18:54:22.928Z,2.70
2022-11-29T18:56:51.992Z,2.71
2022-11-29T18:59:23.225Z,2.68
2022-11-29T19:01:51.755Z,2.64
2022-11-29T19:04:28.271Z,2.64
2022-11-29T19:06:56.568Z,2.64
2022-11-29T19:09:24.555Z,2.67
2022-11-29T19:11:53.000Z,2.67
2022-11-29T19:14:22.838Z,2.70
2022-11-29T19:16:51.533Z,2.67
2022-11-29T19:19:19.983Z,2.74
2022-11-29T19:21:48.654Z,2.69
2022-11-29T19:24:18.646Z,2.74
2022-11-29T19:26:51.979Z,2.68
2022-11-29T19:29:22.513Z,2.69
2022-11-29T19:31:51.021Z,2.68
2022-11-29T19:34:18.958Z,2.64
2022-11-29T19:36:47.373Z,2.68
2022-11-29T19:39:18.752Z,2.67
2022-11-29T19:41:48.291Z,2.65
2022-11-29T19:44:17.067Z,2.62
2022-11-29T19:46:48.919Z,2.66
2022-11-29T19:49:18.386Z,2.61
2022-11-29T19:51:46.850Z,2.62
2022-11-29T19:54:16.956Z,2.63
2022-11-29T19:56:44.858Z,2.60
2022-11-29T19:59:12.641Z,2.63
2022-11-29T20:01:43.017Z,2.60
2022-11-29T20:04:14.276Z,2.71
2022-11-29T20:06:42.446Z,2.66
2022-11-29T20:09:10.388Z,2.71
2022-11-29T20:11:37.893Z,2.65
2022-11-29T20:14:07.129Z,2.59
2022-11-29T20:16:35.098Z,2.63
2022-11-29T20:19:02.442Z,2.66
2022-11-29T20:21:32.704Z,2.62
2022-11-29T20:24:03.285Z,2.63
2022-11-29T20:26:33.118Z,2.61
2022-11-29T20:29:01.851Z,2.58
2022-11-29T20:31:29.968Z,2.59
2022-11-29T20:33:57.648Z,2.63
2022-11-29T20:36:40.260Z,2.59
2022-11-29T20:39:40.062Z,2.58
2022-11-29T20:42:34.004Z,2.52
2022-11-29T20:45:05.932Z,2.51
2022-11-29T20:47:54.395Z,2.52
2022-11-29T20:50:27.629Z,2.49
2022-11-29T20:53:06.839Z,2.52
2022-11-29T20:55:37.829Z,2.47
2022-11-29T20:58:06.715Z,2.47
2022-11-29T21:00:35.119Z,2.44
2022-11-29T21:03:02.470Z,2.44
2022-11-29T21:05:29.816Z,2.41
2022-11-29T21:12:10.615Z,2.40
2022-11-29T21:14:38.335Z,2.39
2022-11-29T21:17:06.072Z,2.37
2022-11-29T21:19:33.654Z,2.34
2022-11-29T21:22:28.156Z,2.29
2022-11-29T21:25:14.184Z,2.25
2022-11-29T21:27:42.311Z,2.20
2022-11-29T21:30:18.737Z,2.11
2022-11-29T21:32:46.609Z,2.10
2022-11-29T21:35:14.744Z,2.07
2022-11-29T21:37:43.245Z,2.08
2022-11-29T21:40:12.059Z,2.07
2022-11-29T21:42:39.342Z,2.03
2022-11-29T21:45:14.625Z,2.03
2022-11-29T21:47:44.190Z,2.02
2022-11-29T21:50:13.118Z,2.05
2022-11-29T21:52:41.025Z,2.01
2022-11-29T21:55:08.866Z,2.05
2022-11-29T21:57:36.194Z,2.06
2022-11-29T22:00:05.204Z,2.04
2022-11-29T22:02:32.582Z,2.02
2022-11-29T22:05:00.143Z,2.04
2022-11-29T22:07:27.738Z,1.99
2022-11-29T22:09:55.727Z,1.97
2022-11-29T22:12:34.154Z,2.00
2022-11-29T22:15:02.450Z,1.97
2022-11-29T22:17:29.914Z,1.94
2022-11-29T22:19:57.458Z,1.97
2022-11-29T22:22:27.944Z,2.03
2022-11-29T22:24:55.951Z,2.04
2022-11-29T22:27:23.421Z,2.01
2022-11-29T22:29:50.748Z,1.98
2022-11-29T22:32:18.174Z,2.02
2022-11-29T22:34:45.738Z,1.99
2022-11-29T22:37:13.315Z,2.04
2022-11-29T22:39:40.572Z,2.04
2022-11-29T22:42:07.920Z,2.10
2022-11-29T22:44:35.360Z,2.05
2022-11-29T22:47:02.652Z,2.04
2022-11-29T22:49:30.152Z,2.04
2022-11-29T22:51:57.463Z,2.03
2022-11-29T22:54:24.863Z,2.05
2022-11-29T22:56:52.502Z,2.05
2022-11-29T22:59:19.788Z,2.03
2022-11-29T23:01:47.287Z,2.03
2022-11-29T23:04:14.774Z,2.03
2022-11-29T23:06:44.798Z,2.12
2022-11-29T23:09:15.491Z,2.13
2022-11-29T23:11:44.722Z,2.12
2022-11-29T23:14:12.671Z,2.11
2022-11-29T23:16:40.108Z,2.07
2022-11-29T23:19:07.591Z,2.09
2022-11-29T23:21:43.960Z,2.12
2022-11-29T23:24:25.617Z,2.04
2022-11-29T23:26:54.028Z,2.05
2022-11-29T23:29:21.557Z,2.03
2022-11-29T23:31:49.343Z,2.01
2022-11-29T23:34:16.706Z,2.06
2022-11-29T23:36:48.246Z,2.08
2022-11-29T23:39:18.624Z,2.04
2022-11-29T23:41:45.921Z,2.00
2022-11-29T23:44:13.284Z,1.99
2022-11-29T23:46:40.668Z,2.02
2022-11-29T23:49:08.057Z,2.05
2022-11-29T23:51:38.590Z,2.03
2022-11-29T23:54:06.088Z,2.03
2022-11-29T23:56:35.576Z,2.05
2022-11-29T23:59:03.585Z,2.01
